Terminal Aerodrome Forecast
Issued by NWS Goodland, KS

Home | Current Version | Previous Version | Text Only | Print | Product List | Glossary On
Versions: 1 2 3 4 5 6 7 8 9 10 11 12 13 14 15
000
FTUS43 KGLD 231120
TAFGLD
TAF
KGLD 231120Z 2312/2412 19008KT P6SM BKN200 WS020/21035KT
     FM231800 19012KT P6SM VCTS SCT035CB BKN080
     FM232000 27008KT P6SM SHRA VCTS SCT035CB BKN080
     FM240000 14012KT 6SM SHRA VCTS OVC025CB
     FM240600 16009KT P6SM SHRA OVC025=

USA.gov is the U.S. government's official web portal to all federal, state and local government web resources and services.